»·PEaware :: QXE2142 KPSP-KLAX

QXE2142 :: KPSP-KLAX

FLIGHT INFORMATION

Flight Status: Arrived
Operator:
Horizon Air
More flights by this operator :: More flights under this callsign
Pilot: Anonymous 16342 (16342)
Aircraft: DEHAVILLAND DASH 8 400
(DH8D)
More flights by this aircraft type
Origin: KPSP Palm Springs Intl
United States
Destination: KLAX Los Angeles Intl
United States
More flights between these airports :: More routes between these airports
Route: +CATH1 PSP V388 PDZ LAHAB
File this flight plan on PilotEdge
Remarks:
Altitude:
(Current/Filed)
12,000ft
Speed:
(Current/Filed)
313kts
Departed: 25-Aug-18 12:26 PM
Arrived: 25-Aug-18 01:04 PM
Distance/Time
Traveled:
95nm/0:38
Distance/Time
To Go:
Arrived

Flight Plot

Page will automatically refresh every two minutes.

Flight plan parsing failed; only flown route is shown


Map Options




Map Legend


Flown Route
Filed Route
Departure Airport
Arrival Airport
Navaid (VOR, NDB)
Fix

Horizontal Profiles

Position Reports

Time Latitude Longitude Heading Altitude Ground
Speed
25-Aug-18 11:51 33.822979 -116.506025 300 484ft 0kts
25-Aug-18 11:52 33.822979 -116.506025 300 484ft 0kts
25-Aug-18 11:53 33.822979 -116.506025 300 484ft 0kts
25-Aug-18 11:54 33.822979 -116.506025 300 484ft 0kts
25-Aug-18 11:55 33.822979 -116.506025 300 484ft 0kts
25-Aug-18 11:56 33.822979 -116.506025 300 484ft 0kts
25-Aug-18 11:57 33.822979 -116.506025 300 484ft 0kts
25-Aug-18 11:58 33.822979 -116.506025 300 484ft 0kts
25-Aug-18 11:59 33.822979 -116.506025 300 484ft 0kts
25-Aug-18 12:00 33.822979 -116.506025 300 484ft 0kts
25-Aug-18 12:01 33.822979 -116.506025 300 484ft 0kts
25-Aug-18 12:02 33.822979 -116.506025 300 484ft 0kts
25-Aug-18 12:03 33.822979 -116.506025 300 484ft 0kts
25-Aug-18 12:04 33.822979 -116.506025 300 484ft 0kts
25-Aug-18 12:05 33.822979 -116.506025 300 484ft 0kts
25-Aug-18 12:06 33.822979 -116.506025 300 484ft 0kts
25-Aug-18 12:07 33.822979 -116.506025 300 484ft 0kts
25-Aug-18 12:08 33.822979 -116.506025 300 484ft 0kts
25-Aug-18 12:09 33.822979 -116.506025 300 484ft 0kts
25-Aug-18 12:10 33.822979 -116.506025 300 484ft 0kts
25-Aug-18 12:11 33.822979 -116.506025 300 484ft 0kts
25-Aug-18 12:12 33.822979 -116.506025 300 484ft 0kts
25-Aug-18 12:13 33.822979 -116.506025 300 484ft 0kts
25-Aug-18 12:14 33.822880 -116.505772 292 484ft 2kts
25-Aug-18 12:15 33.822582 -116.505202 12 484ft 2kts
25-Aug-18 12:16 33.822600 -116.505212 329 484ft 0kts
25-Aug-18 12:17 33.822600 -116.505212 329 484ft 0kts
25-Aug-18 12:18 33.822591 -116.505206 329 484ft 0kts
25-Aug-18 12:19 33.822829 -116.504906 60 484ft 9kts
25-Aug-18 12:20 33.821760 -116.502576 142 484ft 15kts
25-Aug-18 12:21 33.818502 -116.499590 128 484ft 11kts
25-Aug-18 12:22 33.818417 -116.498736 65 484ft 0kts
25-Aug-18 12:23 33.818417 -116.498736 65 484ft 0kts
25-Aug-18 12:24 33.818417 -116.498736 65 484ft 0kts
25-Aug-18 12:25 33.818511 -116.498518 59 484ft 5kts
25-Aug-18 12:26 33.819379 -116.498464 325 484ft 6kts
25-Aug-18 12:27 33.837311 -116.514721 320 841ft 145kts
25-Aug-18 12:28 33.872756 -116.540571 320 2750ft 157kts
25-Aug-18 12:29 33.912161 -116.561279 24 4602ft 167kts
25-Aug-18 12:30 33.913286 -116.514064 122 6842ft 163kts
25-Aug-18 12:31 33.886907 -116.462906 121 8174ft 202kts
25-Aug-18 12:32 33.858974 -116.405424 118 9993ft 209kts
25-Aug-18 12:33 33.833494 -116.344493 117 11648ft 214kts
25-Aug-18 12:34 33.804857 -116.273598 104 11988ft 278kts
25-Aug-18 12:35 33.849605 -116.208651 0 11986ft 313kts
25-Aug-18 12:36 33.902379 -116.275742 275 12007ft 318kts
25-Aug-18 12:37 33.912754 -116.378025 274 12013ft 323kts
25-Aug-18 12:38 33.923048 -116.480982 274 12010ft 325kts
25-Aug-18 12:39 33.933298 -116.584745 274 12022ft 328kts
25-Aug-18 12:40 33.943649 -116.688999 274 12063ft 327kts
25-Aug-18 12:41 33.947760 -116.793233 265 12112ft 325kts
25-Aug-18 12:42 33.943202 -116.898744 265 12134ft 326kts
25-Aug-18 12:43 33.939665 -117.001621 265 12127ft 330kts
25-Aug-18 12:44 33.935698 -117.109221 265 12109ft 328kts
25-Aug-18 12:45 33.931532 -117.211126 265 10797ft 320kts
25-Aug-18 12:46 33.927391 -117.313375 266 9590ft 315kts
25-Aug-18 12:47 33.926518 -117.409615 269 8103ft 267kts
25-Aug-18 12:48 33.926492 -117.490766 269 7964ft 246kts
25-Aug-18 12:49 33.926445 -117.568474 268 7968ft 237kts
25-Aug-18 12:50 33.926373 -117.642107 268 7966ft 240kts
25-Aug-18 12:51 33.926321 -117.706455 268 7969ft 241kts
25-Aug-18 12:52 33.926700 -117.783613 275 7979ft 234kts
25-Aug-18 12:53 33.939832 -117.853597 282 7546ft 228kts
25-Aug-18 12:54 33.953323 -117.921825 282 6454ft 225kts
25-Aug-18 12:55 33.964891 -117.980936 282 4646ft 218kts
25-Aug-18 12:56 33.971572 -118.043279 264 3980ft 176kts
25-Aug-18 12:57 33.966507 -118.097707 262 3586ft 162kts
25-Aug-18 12:58 33.962315 -118.141389 261 3555ft 138kts
25-Aug-18 12:59 33.957414 -118.189245 261 3120ft 135kts
25-Aug-18 13:00 33.953044 -118.231541 262 2054ft 124kts
25-Aug-18 13:01 33.948412 -118.274635 261 1914ft 140kts
25-Aug-18 13:02 33.945372 -118.307227 260 1330ft 109kts
25-Aug-18 13:03 33.940551 -118.351494 260 659ft 116kts
25-Aug-18 13:04 33.937323 -118.383260 262 203ft 119kts
25-Aug-18 13:05 33.935778 -118.406065 291 134ft 11kts
25-Aug-18 13:06 33.935919 -118.406505 290 134ft 5kts
25-Aug-18 13:07 33.937712 -118.409214 353 133ft 0kts
25-Aug-18 13:08 33.937934 -118.409244 352 134ft 4kts
25-Aug-18 13:09 33.938898 -118.406685 82 134ft 11kts
25-Aug-18 13:10 33.939282 -118.402947 82 134ft 5kts
25-Aug-18 13:11 33.939393 -118.401849 83 134ft 12kts
25-Aug-18 13:12 33.941640 -118.400994 350 134ft 4kts
25-Aug-18 13:13 33.941446 -118.401526 258 134ft 1kts

Navigation Log

Ident Type
Flight plan parsing failed, navigation log unavailable